Time;durP1;ratioP1;P1;durP2;ratioP2;P2;SDS_P1;SDS_P2;PMS_P1;PMS_P2;Temp;Humidity;BMP_temperature;BMP_pressure;BME280_temperature;BME280_humidity;BME280_pressure;Samples;Min_cycle;Max_cycle;Signal;HPM_P1;HPM_P2
2022/05/13 00:00:35;;;;;;;3.97;2.13;;;;;;;;;;6281221;22;20160;-63
2022/05/13 00:03:01;;;;;;;5.00;2.28;;;;;;;;;;6281088;22;20570;-63
2022/05/13 00:05:27;;;;;;;3.55;2.50;;;;;;;;;;6281071;22;20163;-63
2022/05/13 00:07:53;;;;;;;4.10;1.88;;;;;;;;;;6255405;22;20143;-62
2022/05/13 00:10:19;;;;;;;4.90;2.50;;;;;;;;;;6255992;22;20140;-63
2022/05/13 00:12:45;;;;;;;4.80;2.53;;;;;;;;;;6280742;22;20139;-63
2022/05/13 00:15:13;;;;;;;6.25;2.38;;;;;;;;;;6280981;22;20147;-63
2022/05/13 00:17:39;;;;;;;5.00;2.30;;;;;;;;;;6281355;22;20198;-63
2022/05/13 00:20:05;;;;;;;8.45;2.28;;;;;;;;;;6287117;22;20551;-63
2022/05/13 00:22:31;;;;;;;5.13;2.42;;;;;;;;;;6291009;22;20140;-63
2022/05/13 00:24:58;;;;;;;6.00;2.70;;;;;;;;;;6291794;22;20162;-62
2022/05/13 00:27:24;;;;;;;4.45;2.55;;;;;;;;;;6292572;22;20136;-63
2022/05/13 00:29:50;;;;;;;5.35;2.42;;;;;;;;;;6283480;22;20582;-63
2022/05/13 00:32:17;;;;;;;4.35;2.08;;;;;;;;;;6280255;22;20143;-63
2022/05/13 00:34:43;;;;;;;7.85;2.70;;;;;;;;;;6280079;22;20136;-62
2022/05/13 00:37:09;;;;;;;2.97;2.40;;;;;;;;;;6279795;22;20150;-61
2022/05/13 00:39:35;;;;;;;4.78;2.38;;;;;;;;;;6279648;22;20447;-62
2022/05/13 00:42:11;;;;;;;9.75;2.65;;;;;;;;;;6279788;22;20136;-62
2022/05/13 00:44:37;;;;;;;5.70;2.65;;;;;;;;;;6279552;22;20253;-62
2022/05/13 00:47:03;;;;;;;4.85;2.40;;;;;;;;;;6280066;22;20136;-62
2022/05/13 00:49:31;;;;;;;7.47;2.58;;;;;;;;;;6280325;22;20474;-62
2022/05/13 00:51:58;;;;;;;5.63;2.10;;;;;;;;;;6280110;22;20281;-62
2022/05/13 00:54:24;;;;;;;4.70;2.42;;;;;;;;;;6279408;22;20424;-62
2022/05/13 00:56:50;;;;;;;5.60;2.30;;;;;;;;;;6279730;22;20170;-62
2022/05/13 00:59:18;;;;;;;3.35;2.30;;;;;;;;;;6279481;22;20238;-62
2022/05/13 01:01:44;;;;;;;2.90;2.33;;;;;;;;;;6279730;22;20158;-62
2022/05/13 01:04:12;;;;;;;4.68;2.13;;;;;;;;;;6280006;22;20139;-62
2022/05/13 01:06:41;;;;;;;4.22;2.38;;;;;;;;;;6279802;22;20146;-62
2022/05/13 01:09:07;;;;;;;3.03;2.50;;;;;;;;;;6279771;22;20217;-63
2022/05/13 01:11:35;;;;;;;6.40;2.17;;;;;;;;;;6279675;22;20151;-63
2022/05/13 01:14:03;;;;;;;4.05;2.20;;;;;;;;;;6279893;22;20143;-63
2022/05/13 01:16:29;;;;;;;5.22;2.40;;;;;;;;;;6279526;22;20570;-63
2022/05/13 01:18:55;;;;;;;3.55;2.30;;;;;;;;;;6279126;22;20163;-63
2022/05/13 01:21:29;;;;;;;3.47;2.40;;;;;;;;;;6279837;22;20163;-63
2022/05/13 01:23:55;;;;;;;5.93;2.60;;;;;;;;;;6279911;22;20181;-63
2022/05/13 01:26:25;;;;;;;5.55;2.47;;;;;;;;;;6279653;22;20135;-63
2022/05/13 01:28:53;;;;;;;4.30;2.30;;;;;;;;;;6279570;22;20501;-63
2022/05/13 01:31:23;;;;;;;3.58;2.22;;;;;;;;;;6279779;22;20144;-63
2022/05/13 01:33:49;;;;;;;7.38;2.50;;;;;;;;;;6279742;22;20143;-62
2022/05/13 01:36:15;;;;;;;7.22;2.97;;;;;;;;;;6279354;22;20174;-63
2022/05/13 01:38:42;;;;;;;6.68;2.55;;;;;;;;;;6279569;22;20178;-63
2022/05/13 01:41:09;;;;;;;4.40;2.40;;;;;;;;;;6279234;22;20139;-63
2022/05/13 01:43:35;;;;;;;3.88;2.55;;;;;;;;;;6279250;22;20150;-63
2022/05/13 01:46:01;;;;;;;5.00;2.60;;;;;;;;;;6279404;22;20140;-63
2022/05/13 01:48:28;;;;;;;4.07;2.85;;;;;;;;;;6279657;22;20148;-63
2022/05/13 01:50:54;;;;;;;5.13;2.50;;;;;;;;;;6278934;22;20170;-62
2022/05/13 01:53:20;;;;;;;4.53;2.67;;;;;;;;;;6279174;22;20540;-63
2022/05/13 01:55:46;;;;;;;3.67;2.70;;;;;;;;;;6278990;22;20185;-63
2022/05/13 01:58:13;;;;;;;3.58;2.53;;;;;;;;;;6279739;22;20174;-63
2022/05/13 02:00:39;;;;;;;4.72;2.33;;;;;;;;;;6279350;22;20492;-63
2022/05/13 02:05:50;;;;;;;8.65;3.00;;;;;;;;;;6278889;22;20586;-63
2022/05/13 02:08:16;;;;;;;3.78;2.65;;;;;;;;;;6278895;22;20140;-62
2022/05/13 02:10:42;;;;;;;6.88;3.05;;;;;;;;;;6278582;22;20136;-63
2022/05/13 02:13:08;;;;;;;9.05;2.80;;;;;;;;;;6278914;22;20443;-62
2022/05/13 02:15:34;;;;;;;5.18;2.95;;;;;;;;;;6251912;22;20147;-62
2022/05/13 02:18:00;;;;;;;7.03;3.00;;;;;;;;;;6278874;22;20163;-62
2022/05/13 02:20:26;;;;;;;5.70;2.88;;;;;;;;;;6278797;22;20567;-63
2022/05/13 02:22:52;;;;;;;6.05;2.60;;;;;;;;;;6279003;22;20178;-62
2022/05/13 02:25:18;;;;;;;4.40;3.00;;;;;;;;;;6278911;22;20167;-62
2022/05/13 02:27:44;;;;;;;4.50;2.47;;;;;;;;;;6252247;22;20159;-64
2022/05/13 02:30:10;;;;;;;7.07;3.38;;;;;;;;;;6278714;22;20143;-63
2022/05/13 02:32:36;;;;;;;3.72;2.70;;;;;;;;;;6278823;22;20174;-62
2022/05/13 02:35:03;;;;;;;7.50;3.05;;;;;;;;;;6278996;22;20144;-63
2022/05/13 02:37:28;;;;;;;7.93;2.85;;;;;;;;;;6278866;22;20144;-63
2022/05/13 02:39:54;;;;;;;6.03;2.85;;;;;;;;;;6278565;22;20135;-62
2022/05/13 02:42:20;;;;;;;5.45;2.75;;;;;;;;;;6278951;22;20229;-63
2022/05/13 02:44:46;;;;;;;5.05;3.05;;;;;;;;;;6278955;22;20147;-63
2022/05/13 02:47:12;;;;;;;6.85;3.38;;;;;;;;;;6279055;22;20148;-63
2022/05/13 02:49:38;;;;;;;6.93;3.13;;;;;;;;;;6279003;22;20233;-63
2022/05/13 02:52:05;;;;;;;5.20;2.78;;;;;;;;;;6278709;22;20215;-63
2022/05/13 02:54:31;;;;;;;7.38;3.17;;;;;;;;;;6279068;22;20147;-63
2022/05/13 02:56:56;;;;;;;5.15;3.15;;;;;;;;;;6279051;22;20220;-63
2022/05/13 02:59:22;;;;;;;5.85;2.90;;;;;;;;;;6278591;22;20586;-63
2022/05/13 03:01:50;;;;;;;3.80;3.20;;;;;;;;;;6278313;22;20486;-63
2022/05/13 03:04:16;;;;;;;8.57;3.05;;;;;;;;;;6278605;22;20159;-61
2022/05/13 03:06:42;;;;;;;4.82;2.88;;;;;;;;;;6277930;22;20540;-62
2022/05/13 03:09:09;;;;;;;9.30;3.05;;;;;;;;;;6278457;22;20143;-63
2022/05/13 03:11:36;;;;;;;3.88;3.00;;;;;;;;;;6278430;22;20171;-63
2022/05/13 03:14:02;;;;;;;4.10;2.80;;;;;;;;;;6278286;22;20199;-63
2022/05/13 03:16:30;;;;;;;3.85;2.67;;;;;;;;;;6278228;22;20148;-63
2022/05/13 03:18:58;;;;;;;5.43;2.90;;;;;;;;;;6278769;22;20167;-63
2022/05/13 03:21:24;;;;;;;5.53;2.80;;;;;;;;;;6278600;22;20218;-62
2022/05/13 03:23:51;;;;;;;6.65;3.03;;;;;;;;;;6278269;22;20228;-67
2022/05/13 03:26:18;;;;;;;5.25;3.10;;;;;;;;;;6278294;22;20147;-63
2022/05/13 03:28:43;;;;;;;7.20;3.28;;;;;;;;;;6278456;22;20236;-63
2022/05/13 03:31:09;;;;;;;5.38;3.20;;;;;;;;;;6278524;22;20144;-63
2022/05/13 03:33:35;;;;;;;5.85;2.85;;;;;;;;;;6278365;22;20236;-63
2022/05/13 03:36:01;;;;;;;5.95;2.78;;;;;;;;;;6278362;22;20222;-63
2022/05/13 03:38:27;;;;;;;5.65;2.70;;;;;;;;;;6278815;22;20447;-63
2022/05/13 03:40:53;;;;;;;3.70;2.63;;;;;;;;;;6278169;22;20136;-63
2022/05/13 03:43:19;;;;;;;3.10;2.65;;;;;;;;;;6278608;22;20243;-63
2022/05/13 03:45:45;;;;;;;4.72;2.88;;;;;;;;;;6278312;22;20205;-63
2022/05/13 03:48:11;;;;;;;5.30;2.70;;;;;;;;;;6278426;22;20143;-63
2022/05/13 03:50:38;;;;;;;5.50;2.67;;;;;;;;;;6278803;22;20234;-63
2022/05/13 03:53:04;;;;;;;7.97;3.15;;;;;;;;;;6278561;22;20167;-63
2022/05/13 03:55:30;;;;;;;6.03;2.70;;;;;;;;;;6278400;22;20166;-63
2022/05/13 03:57:56;;;;;;;5.35;2.92;;;;;;;;;;6278372;22;20250;-63
2022/05/13 04:00:23;;;;;;;5.03;2.47;;;;;;;;;;6278926;22;20269;-63
2022/05/13 04:02:49;;;;;;;8.48;3.67;;;;;;;;;;6252268;22;20140;-63
2022/05/13 04:10:44;;;;;;;3.95;2.80;;;;;;;;;;6278678;22;20488;-62
2022/05/13 04:16:06;;;;;;;4.25;2.95;;;;;;;;;;6277657;22;20232;-63
2022/05/13 04:18:37;;;;;;;4.28;2.78;;;;;;;;;;6277785;22;20447;-63
2022/05/13 04:21:04;;;;;;;4.82;3.00;;;;;;;;;;6277428;22;20612;-63
2022/05/13 04:23:31;;;;;;;3.45;2.55;;;;;;;;;;6277321;22;20140;-63
2022/05/13 04:25:57;;;;;;;5.28;2.90;;;;;;;;;;6277436;22;20140;-62
2022/05/13 04:28:23;;;;;;;6.57;2.70;;;;;;;;;;6277113;22;20155;-62
2022/05/13 04:30:49;;;;;;;6.38;2.80;;;;;;;;;;6276979;22;20143;-64
2022/05/13 04:33:15;;;;;;;7.95;3.55;;;;;;;;;;6277475;22;20406;-62
2022/05/13 04:35:41;;;;;;;3.60;2.38;;;;;;;;;;6276982;22;20144;-62
2022/05/13 04:38:08;;;;;;;4.75;2.85;;;;;;;;;;6278690;22;20297;-62
2022/05/13 04:40:34;;;;;;;6.70;2.75;;;;;;;;;;6278620;22;20147;-62
2022/05/13 04:43:00;;;;;;;5.30;2.90;;;;;;;;;;6278717;22;20140;-62
2022/05/13 04:45:29;;;;;;;5.50;2.70;;;;;;;;;;6279084;22;20144;-63
2022/05/13 04:48:17;;;;;;;2.88;2.58;;;;;;;;;;6278473;22;20219;-63
2022/05/13 04:50:46;;;;;;;5.03;2.60;;;;;;;;;;6278790;22;20218;-63
2022/05/13 04:53:14;;;;;;;5.63;2.67;;;;;;;;;;6278768;22;20523;-63
2022/05/13 04:55:40;;;;;;;4.70;2.42;;;;;;;;;;6278694;22;20226;-63
2022/05/13 04:58:06;;;;;;;6.32;2.50;;;;;;;;;;6279037;22;20163;-63
2022/05/13 05:00:32;;;;;;;3.72;2.22;;;;;;;;;;6278668;22;20147;-62
2022/05/13 05:02:59;;;;;;;8.15;2.42;;;;;;;;;;6278738;22;20559;-62
2022/05/13 05:05:24;;;;;;;5.57;3.30;;;;;;;;;;6278397;22;20674;-62
2022/05/13 05:07:50;;;;;;;3.42;2.25;;;;;;;;;;6278387;22;20151;-62
2022/05/13 05:10:20;;;;;;;4.10;2.22;;;;;;;;;;6278532;22;20154;-62
2022/05/13 05:12:47;;;;;;;5.35;2.78;;;;;;;;;;6279220;22;20217;-62
2022/05/13 05:15:14;;;;;;;5.30;2.55;;;;;;;;;;6279253;22;20144;-63
2022/05/13 05:17:40;;;;;;;4.47;2.00;;;;;;;;;;6278673;22;20613;-62
2022/05/13 05:20:06;;;;;;;4.18;2.45;;;;;;;;;;6279038;22;20167;-63
2022/05/13 05:22:33;;;;;;;5.00;2.17;;;;;;;;;;6279054;22;20144;-62
2022/05/13 05:24:58;;;;;;;4.80;2.30;;;;;;;;;;6279564;22;20136;-62
2022/05/13 05:27:25;;;;;;;3.10;2.20;;;;;;;;;;6279794;22;20148;-62
2022/05/13 05:29:51;;;;;;;5.50;2.42;;;;;;;;;;6278882;22;20288;-62
2022/05/13 05:32:17;;;;;;;5.40;2.10;;;;;;;;;;6279574;22;20140;-62
2022/05/13 05:34:43;;;;;;;4.45;2.42;;;;;;;;;;6279125;22;20147;-62
2022/05/13 05:37:08;;;;;;;4.93;2.17;;;;;;;;;;6278870;22;20613;-62
2022/05/13 05:39:34;;;;;;;3.08;1.92;;;;;;;;;;6278420;22;20194;-61
2022/05/13 05:42:00;;;;;;;4.10;2.08;;;;;;;;;;6278483;22;20140;-61
2022/05/13 05:44:26;;;;;;;3.95;2.03;;;;;;;;;;6278234;22;20142;-62
2022/05/13 05:46:52;;;;;;;4.22;2.00;;;;;;;;;;6278089;22;20143;-61
2022/05/13 05:49:18;;;;;;;3.00;1.65;;;;;;;;;;6280100;22;20182;-60
2022/05/13 05:51:44;;;;;;;4.93;2.20;;;;;;;;;;6280786;22;20154;-60
2022/05/13 05:57:13;;;;;;;4.43;2.67;;;;;;;;;;6281284;22;20197;-60
2022/05/13 05:59:39;;;;;;;6.13;2.30;;;;;;;;;;6281072;22;20237;-61
2022/05/13 06:02:05;;;;;;;4.53;2.20;;;;;;;;;;6281811;22;20142;-61
2022/05/13 06:04:31;;;;;;;6.82;2.47;;;;;;;;;;6281373;22;20140;-61
2022/05/13 06:06:57;;;;;;;4.95;2.38;;;;;;;;;;6281111;22;20139;-60
2022/05/13 06:09:23;;;;;;;5.38;2.33;;;;;;;;;;6255391;22;20581;-61
2022/05/13 06:11:49;;;;;;;2.75;1.85;;;;;;;;;;6282271;22;20140;-60
2022/05/13 06:14:15;;;;;;;3.20;2.10;;;;;;;;;;6282250;22;20223;-61
2022/05/13 06:16:41;;;;;;;5.72;2.58;;;;;;;;;;6282335;22;20170;-60
2022/05/13 06:19:07;;;;;;;3.92;2.15;;;;;;;;;;6282014;22;20605;-60
2022/05/13 06:21:35;;;;;;;3.90;2.72;;;;;;;;;;6281558;22;20195;-60
2022/05/13 06:24:01;;;;;;;7.65;2.40;;;;;;;;;;6281031;22;20142;-60
2022/05/13 06:26:28;;;;;;;3.42;2.15;;;;;;;;;;6281546;22;20140;-60
2022/05/13 06:28:54;;;;;;;5.95;2.50;;;;;;;;;;6281765;22;20209;-60
2022/05/13 06:31:21;;;;;;;6.47;2.63;;;;;;;;;;6282123;22;20152;-59
2022/05/13 06:33:47;;;;;;;5.82;2.80;;;;;;;;;;6281672;22;20147;-60
2022/05/13 06:36:13;;;;;;;5.78;2.20;;;;;;;;;;6254228;22;20156;-60
2022/05/13 06:38:40;;;;;;;6.85;2.47;;;;;;;;;;6281097;22;20167;-60
2022/05/13 06:41:06;;;;;;;4.82;2.15;;;;;;;;;;6281198;22;20135;-59
2022/05/13 06:43:32;;;;;;;7.22;2.78;;;;;;;;;;6281035;22;20146;-60
2022/05/13 06:45:57;;;;;;;4.82;2.65;;;;;;;;;;6281226;22;20630;-60
2022/05/13 06:48:24;;;;;;;4.95;2.30;;;;;;;;;;6280685;22;20139;-60
2022/05/13 06:50:49;;;;;;;4.15;2.58;;;;;;;;;;6281712;22;20483;-60
2022/05/13 06:53:16;;;;;;;5.60;2.25;;;;;;;;;;6283202;22;20143;-60
2022/05/13 06:55:44;;;;;;;4.00;2.50;;;;;;;;;;6282500;22;20166;-60
2022/05/13 06:58:10;;;;;;;7.03;2.70;;;;;;;;;;6280789;22;20591;-60
2022/05/13 07:00:36;;;;;;;6.28;2.13;;;;;;;;;;6283001;22;20438;-60
2022/05/13 07:03:02;;;;;;;7.07;2.67;;;;;;;;;;6282180;22;20222;-61
2022/05/13 07:05:28;;;;;;;4.05;2.28;;;;;;;;;;6282082;22;20140;-61
2022/05/13 07:07:54;;;;;;;6.55;3.05;;;;;;;;;;6281833;22;20615;-60
2022/05/13 07:10:20;;;;;;;5.88;2.35;;;;;;;;;;6282216;22;20187;-60
2022/05/13 07:12:47;;;;;;;8.18;2.85;;;;;;;;;;6282709;22;20282;-61
2022/05/13 07:15:14;;;;;;;6.63;2.45;;;;;;;;;;6283422;22;20151;-61
2022/05/13 07:17:40;;;;;;;4.65;2.38;;;;;;;;;;6283279;22;20167;-61
2022/05/13 07:20:06;;;;;;;5.85;2.30;;;;;;;;;;6284378;22;20191;-60
2022/05/13 07:22:34;;;;;;;4.85;1.88;;;;;;;;;;6293004;22;20190;-62
2022/05/13 07:25:00;;;;;;;3.92;2.67;;;;;;;;;;6296039;22;20187;-61
2022/05/13 07:27:26;;;;;;;8.00;2.50;;;;;;;;;;6296449;22;20176;-61
2022/05/13 07:29:52;;;;;;;4.93;2.47;;;;;;;;;;6295156;22;20154;-61
2022/05/13 07:32:17;;;;;;;5.50;2.67;;;;;;;;;;6285655;22;20218;-61
2022/05/13 07:34:43;;;;;;;5.28;2.55;;;;;;;;;;6280144;22;20183;-61
2022/05/13 07:37:09;;;;;;;4.97;2.50;;;;;;;;;;6278978;22;20178;-62
2022/05/13 07:42:20;;;;;;;8.80;2.50;;;;;;;;;;6277731;22;20219;-60
2022/05/13 07:44:47;;;;;;;6.57;2.40;;;;;;;;;;6277607;22;20151;-62
2022/05/13 07:47:14;;;;;;;3.60;2.20;;;;;;;;;;6278469;22;20150;-62
2022/05/13 07:49:42;;;;;;;9.38;2.67;;;;;;;;;;6277259;22;20201;-63
2022/05/13 07:52:09;;;;;;;6.03;2.45;;;;;;;;;;6277832;22;20171;-61
2022/05/13 07:54:35;;;;;;;5.47;2.28;;;;;;;;;;6277332;22;20152;-63
2022/05/13 07:57:01;;;;;;;4.72;2.22;;;;;;;;;;6278265;22;20178;-63
2022/05/13 07:59:27;;;;;;;3.92;2.35;;;;;;;;;;6279007;22;20166;-61
2022/05/13 08:01:54;;;;;;;6.10;2.35;;;;;;;;;;6277167;22;20140;-62
2022/05/13 08:04:19;;;;;;;5.13;2.45;;;;;;;;;;6277033;22;20551;-60
2022/05/13 08:06:45;;;;;;;7.97;2.55;;;;;;;;;;6276951;22;20218;-61
2022/05/13 08:09:12;;;;;;;6.15;2.30;;;;;;;;;;6277098;22;20150;-61
2022/05/13 08:11:38;;;;;;;7.03;2.70;;;;;;;;;;6278369;22;20207;-60
2022/05/13 08:14:04;;;;;;;6.00;2.60;;;;;;;;;;6279596;22;20139;-61
2022/05/13 08:16:32;;;;;;;9.68;2.78;;;;;;;;;;6279573;22;20543;-61
2022/05/13 08:18:58;;;;;;;7.05;2.45;;;;;;;;;;6279786;22;20163;-61
2022/05/13 08:21:24;;;;;;;6.20;2.38;;;;;;;;;;6279541;22;20208;-61
2022/05/13 08:23:51;;;;;;;4.57;2.33;;;;;;;;;;6280319;22;20140;-61
2022/05/13 08:26:17;;;;;;;4.10;2.80;;;;;;;;;;6280929;22;20602;-61
2022/05/13 08:28:43;;;;;;;3.78;2.30;;;;;;;;;;6281915;22;20139;-61
2022/05/13 08:31:09;;;;;;;6.18;2.67;;;;;;;;;;6282669;22;20556;-62
2022/05/13 08:33:36;;;;;;;4.35;2.47;;;;;;;;;;6280414;22;20156;-61
2022/05/13 08:36:04;;;;;;;4.63;2.10;;;;;;;;;;6279052;22;20131;-61
2022/05/13 08:38:31;;;;;;;5.95;2.22;;;;;;;;;;6278846;22;20175;-61
2022/05/13 08:41:09;;;;;;;3.30;2.15;;;;;;;;;;6279239;22;20143;-61
2022/05/13 08:43:39;;;;;;;4.90;2.05;;;;;;;;;;6278487;22;20150;-61
2022/05/13 08:46:25;;;;;;;5.43;2.38;;;;;;;;;;6279510;22;20159;-61
2022/05/13 08:48:54;;;;;;;3.70;2.15;;;;;;;;;;6278432;22;20143;-61
2022/05/13 08:51:29;;;;;;;5.63;2.58;;;;;;;;;;6278724;22;20197;-61
2022/05/13 08:53:58;;;;;;;4.47;2.30;;;;;;;;;;6278911;22;20208;-60
2022/05/13 08:56:28;;;;;;;4.00;2.28;;;;;;;;;;6254263;22;20495;-62
2022/05/13 08:58:59;;;;;;;4.55;2.40;;;;;;;;;;6281009;22;20162;-61
2022/05/13 09:01:31;;;;;;;4.72;1.83;;;;;;;;;;6283435;22;20428;-62
2022/05/13 09:04:02;;;;;;;5.57;2.08;;;;;;;;;;6278970;22;20140;-61
2022/05/13 09:06:29;;;;;;;9.90;2.30;;;;;;;;;;6279843;22;20147;-61
2022/05/13 09:08:54;;;;;;;5.75;2.33;;;;;;;;;;6279589;22;20181;-61
2022/05/13 09:11:27;;;;;;;5.32;2.10;;;;;;;;;;6279078;22;20234;-62
2022/05/13 09:13:59;;;;;;;3.03;1.60;;;;;;;;;;6278486;22;20154;-61
2022/05/13 09:16:40;;;;;;;4.32;2.10;;;;;;;;;;6278541;22;20488;-62
2022/05/13 09:19:08;;;;;;;5.57;2.63;;;;;;;;;;6278168;22;20708;-62
2022/05/13 09:21:35;;;;;;;4.80;1.90;;;;;;;;;;6280045;22;20143;-62
2022/05/13 09:24:01;;;;;;;6.30;2.10;;;;;;;;;;6280009;22;20499;-63
2022/05/13 09:26:27;;;;;;;5.00;2.10;;;;;;;;;;6279851;22;20135;-61
2022/05/13 09:29:03;;;;;;;5.65;2.20;;;;;;;;;;6279114;22;20158;-62
2022/05/13 09:31:30;;;;;;;5.53;2.00;;;;;;;;;;6278170;22;20143;-63
2022/05/13 09:33:56;;;;;;;5.13;2.00;;;;;;;;;;6278744;22;20457;-62
2022/05/13 09:36:22;;;;;;;4.75;2.05;;;;;;;;;;6278592;22;20442;-62
2022/05/13 09:38:49;;;;;;;5.13;2.30;;;;;;;;;;6278541;22;20189;-62
2022/05/13 09:41:23;;;;;;;6.20;2.10;;;;;;;;;;6279193;22;20135;-62
2022/05/13 09:43:54;;;;;;;5.50;2.13;;;;;;;;;;6278358;22;20465;-61
2022/05/13 09:46:30;;;;;;;5.32;2.05;;;;;;;;;;6250999;22;20170;-61
2022/05/13 09:48:58;;;;;;;4.05;2.15;;;;;;;;;;6277817;22;20164;-62
2022/05/13 09:51:26;;;;;;;6.38;2.15;;;;;;;;;;6277917;22;20214;-62
2022/05/13 09:54:11;;;;;;;4.15;2.15;;;;;;;;;;6279186;22;20151;-62
2022/05/13 09:56:41;;;;;;;3.97;2.05;;;;;;;;;;6277975;22;20207;-62
2022/05/13 09:59:14;;;;;;;4.82;2.45;;;;;;;;;;6277711;22;20250;-63
2022/05/13 10:01:40;;;;;;;5.32;2.40;;;;;;;;;;6277739;22;20189;-63
2022/05/13 10:04:10;;;;;;;5.93;2.38;;;;;;;;;;6278283;22;20551;-61
2022/05/13 10:06:37;;;;;;;6.25;2.35;;;;;;;;;;6278196;22;20123;-62
2022/05/13 10:14:39;;;;;;;5.47;2.67;;;;;;;;;;6277571;22;20157;-62
2022/05/13 10:17:07;;;;;;;5.50;3.40;;;;;;;;;;6279457;22;20202;-62
2022/05/13 10:19:36;;;;;;;4.95;2.83;;;;;;;;;;6279799;22;20257;-63
2022/05/13 10:22:20;;;;;;;8.18;3.13;;;;;;;;;;6279291;22;20328;-63
2022/05/13 10:24:52;;;;;;;6.38;2.88;;;;;;;;;;6278376;22;20135;-63
2022/05/13 10:27:23;;;;;;;7.65;2.83;;;;;;;;;;6278746;22;20196;-62
2022/05/13 10:29:51;;;;;;;8.77;3.30;;;;;;;;;;6279950;22;20128;-62
2022/05/13 10:32:33;;;;;;;5.57;2.92;;;;;;;;;;6278713;22;20150;-61
2022/05/13 10:35:01;;;;;;;5.80;3.00;;;;;;;;;;6279020;22;20159;-61
2022/05/13 10:37:35;;;;;;;6.78;2.60;;;;;;;;;;6253693;22;20147;-62
2022/05/13 10:40:08;;;;;;;5.97;2.85;;;;;;;;;;6280594;22;20244;-62
2022/05/13 10:42:41;;;;;;;3.42;2.33;;;;;;;;;;6281676;22;20154;-62
2022/05/13 10:45:10;;;;;;;6.35;3.10;;;;;;;;;;6279401;22;20206;-62
2022/05/13 10:47:49;;;;;;;6.55;2.80;;;;;;;;;;6278756;22;20171;-62
2022/05/13 10:50:22;;;;;;;7.45;2.88;;;;;;;;;;6277372;22;20436;-61
2022/05/13 10:52:58;;;;;;;5.75;2.88;;;;;;;;;;6250637;22;20195;-62
2022/05/13 10:55:43;;;;;;;6.22;3.17;;;;;;;;;;6278275;22;20128;-62
2022/05/13 10:58:27;;;;;;;9.38;3.20;;;;;;;;;;6278243;22;20170;-63
2022/05/13 11:00:59;;;;;;;6.40;2.88;;;;;;;;;;6277710;22;20188;-64
2022/05/13 11:03:28;;;;;;;4.57;2.97;;;;;;;;;;6278142;22;20139;-63
2022/05/13 11:06:13;;;;;;;4.82;3.30;;;;;;;;;;6279299;22;20563;-63
2022/05/13 11:08:48;;;;;;;9.20;2.58;;;;;;;;;;6277843;22;20476;-64
2022/05/13 11:11:24;;;;;;;6.28;2.75;;;;;;;;;;6277400;22;20147;-63
2022/05/13 11:13:56;;;;;;;8.40;3.58;;;;;;;;;;6278055;22;20145;-63
2022/05/13 11:16:31;;;;;;;4.70;2.88;;;;;;;;;;6279415;22;20146;-64
2022/05/13 11:19:04;;;;;;;7.25;3.50;;;;;;;;;;6278229;22;20274;-63
2022/05/13 11:21:39;;;;;;;7.10;3.97;;;;;;;;;;6277040;22;20449;-64
2022/05/13 11:27:33;;;;;;;9.25;3.88;;;;;;;;;;6277050;22;20448;-63
2022/05/13 11:30:13;;;;;;;6.72;3.72;;;;;;;;;;6278030;22;20127;-64
2022/05/13 11:32:59;;;;;;;6.75;3.47;;;;;;;;;;6277325;22;20143;-63
2022/05/13 11:35:39;;;;;;;4.43;2.80;;;;;;;;;;6277070;22;20166;-63
2022/05/13 11:38:09;;;;;;;7.25;3.40;;;;;;;;;;6277264;22;20672;-63
2022/05/13 11:40:35;;;;;;;6.53;3.33;;;;;;;;;;6277728;22;20147;-63
2022/05/13 11:43:18;;;;;;;6.25;3.70;;;;;;;;;;6277094;22;20165;-62
2022/05/13 11:46:03;;;;;;;5.38;3.00;;;;;;;;;;6277072;22;20159;-63
2022/05/13 11:48:31;;;;;;;5.25;2.85;;;;;;;;;;6278964;22;20445;-62
2022/05/13 11:51:02;;;;;;;6.80;2.97;;;;;;;;;;6279061;22;20208;-64
2022/05/13 11:53:45;;;;;;;5.38;3.08;;;;;;;;;;6279079;22;20153;-64
2022/05/13 11:56:17;;;;;;;4.07;2.70;;;;;;;;;;6278776;22;20218;-64
2022/05/13 11:58:47;;;;;;;3.83;2.53;;;;;;;;;;6278691;22;20590;-64
2022/05/13 12:01:14;;;;;;;4.82;2.88;;;;;;;;;;6279160;22;20143;-64
2022/05/13 12:03:40;;;;;;;3.83;2.78;;;;;;;;;;6279178;22;20226;-65
2022/05/13 12:15:32;;;;;;;5.25;2.40;;;;;;;;;;6278891;22;20141;-64
2022/05/13 12:17:58;;;;;;;7.90;2.92;;;;;;;;;;6279032;22;20127;-64
2022/05/13 12:26:50;;;;;;;4.88;2.25;;;;;;;;;;6279235;22;20177;-64
2022/05/13 12:29:17;;;;;;;7.85;2.40;;;;;;;;;;6279023;22;20154;-64
2022/05/13 12:31:49;;;;;;;5.35;2.30;;;;;;;;;;6278854;22;20151;-64
2022/05/13 12:39:52;;;;;;;4.95;2.10;;;;;;;;;;6278639;22;20280;-64
2022/05/13 12:42:37;;;;;;;6.13;2.15;;;;;;;;;;6251695;22;20439;-64
2022/05/13 12:45:03;;;;;;;5.60;2.70;;;;;;;;;;6279007;22;20153;-64
2022/05/13 12:47:30;;;;;;;6.32;2.70;;;;;;;;;;6278787;22;20193;-64
2022/05/13 12:50:01;;;;;;;4.57;2.75;;;;;;;;;;6278520;22;20230;-65
2022/05/13 12:52:27;;;;;;;3.35;2.50;;;;;;;;;;6278750;22;20212;-64
2022/05/13 12:54:53;;;;;;;6.68;2.75;;;;;;;;;;6278359;22;20568;-64
2022/05/13 12:57:20;;;;;;;4.18;2.33;;;;;;;;;;6278199;22;20143;-65
2022/05/13 12:59:49;;;;;;;3.33;1.98;;;;;;;;;;6279102;22;20224;-63
2022/05/13 13:02:16;;;;;;;4.35;1.45;;;;;;;;;;6278489;22;20216;-64
2022/05/13 13:04:52;;;;;;;4.45;2.10;;;;;;;;;;6278677;22;20135;-64
2022/05/13 13:07:20;;;;;;;4.88;1.63;;;;;;;;;;6278695;22;20131;-65
2022/05/13 13:09:48;;;;;;;4.50;1.50;;;;;;;;;;6278980;22;20223;-63
2022/05/13 13:12:27;;;;;;;3.00;1.70;;;;;;;;;;6278647;22;20162;-62
2022/05/13 13:14:59;;;;;;;4.13;1.70;;;;;;;;;;6278554;22;20581;-64
2022/05/13 13:17:28;;;;;;;5.68;1.63;;;;;;;;;;6278647;22;20135;-64
2022/05/13 13:19:58;;;;;;;1.95;1.40;;;;;;;;;;6278117;22;20500;-64
2022/05/13 13:22:26;;;;;;;5.20;1.63;;;;;;;;;;6278741;22;20166;-64
2022/05/13 13:24:52;;;;;;;3.50;1.55;;;;;;;;;;6278526;22;20193;-64
2022/05/13 13:27:19;;;;;;;4.35;1.35;;;;;;;;;;6278898;22;20477;-64
2022/05/13 13:29:46;;;;;;;5.32;1.50;;;;;;;;;;6278438;22;20147;-64
2022/05/13 13:32:16;;;;;;;6.55;1.38;;;;;;;;;;6281850;22;20147;-64
2022/05/13 13:34:50;;;;;;;2.45;1.20;;;;;;;;;;6278307;22;20470;-64
2022/05/13 13:37:17;;;;;;;2.65;1.55;;;;;;;;;;6279319;22;20168;-64
2022/05/13 13:39:43;;;;;;;4.97;1.67;;;;;;;;;;6288002;22;20162;-64
2022/05/13 13:42:14;;;;;;;3.25;1.38;;;;;;;;;;6280771;22;20170;-64
2022/05/13 13:44:41;;;;;;;4.40;1.65;;;;;;;;;;6278721;22;20140;-65
2022/05/13 13:47:12;;;;;;;1.67;1.40;;;;;;;;;;6279248;22;20139;-65
2022/05/13 13:49:39;;;;;;;2.47;1.38;;;;;;;;;;6280998;22;20146;-65
2022/05/13 13:52:11;;;;;;;2.08;1.40;;;;;;;;;;6279951;22;20143;-65
2022/05/13 13:54:37;;;;;;;3.00;1.40;;;;;;;;;;6280243;22;20155;-65
2022/05/13 13:57:21;;;;;;;2.88;1.00;;;;;;;;;;6280329;22;20212;-65
2022/05/13 13:59:54;;;;;;;3.80;1.40;;;;;;;;;;6279345;22;20197;-65
2022/05/13 14:02:30;;;;;;;4.28;1.65;;;;;;;;;;6280190;22;20535;-65
2022/05/13 14:04:56;;;;;;;4.35;1.45;;;;;;;;;;6282216;22;20169;-65
2022/05/13 14:07:22;;;;;;;3.92;1.30;;;;;;;;;;6279501;22;20147;-65
2022/05/13 14:09:48;;;;;;;5.00;1.23;;;;;;;;;;6278091;22;20573;-64
2022/05/13 14:12:20;;;;;;;3.10;1.08;;;;;;;;;;6283016;22;20154;-64
2022/05/13 14:14:49;;;;;;;5.45;1.38;;;;;;;;;;6278675;22;20147;-64
2022/05/13 14:17:18;;;;;;;2.90;1.00;;;;;;;;;;6277727;22;20147;-64
2022/05/13 14:19:48;;;;;;;2.30;1.02;;;;;;;;;;6277774;22;20175;-64
2022/05/13 14:22:14;;;;;;;1.95;0.95;;;;;;;;;;6278008;22;20532;-64
2022/05/13 14:24:41;;;;;;;2.83;0.80;;;;;;;;;;6277753;22;20136;-65
2022/05/13 14:27:13;;;;;;;2.05;0.90;;;;;;;;;;6277568;22;20146;-64
2022/05/13 14:29:40;;;;;;;2.53;0.80;;;;;;;;;;6277715;22;20153;-64
2022/05/13 14:32:08;;;;;;;3.97;1.02;;;;;;;;;;6277493;22;20169;-64
2022/05/13 14:34:34;;;;;;;1.65;0.90;;;;;;;;;;6276754;22;20197;-64
2022/05/13 14:37:03;;;;;;;3.22;0.80;;;;;;;;;;6276215;22;20219;-64
2022/05/13 14:39:49;;;;;;;2.47;0.73;;;;;;;;;;6276013;22;20205;-64
2022/05/13 14:42:33;;;;;;;3.17;1.30;;;;;;;;;;6276472;22;20465;-65
2022/05/13 14:45:00;;;;;;;3.40;0.85;;;;;;;;;;6276400;22;20127;-64
2022/05/13 14:47:26;;;;;;;1.55;0.73;;;;;;;;;;6276179;22;20135;-65
2022/05/13 14:49:56;;;;;;;3.00;0.73;;;;;;;;;;6276153;22;20150;-65
2022/05/13 14:52:25;;;;;;;5.65;0.98;;;;;;;;;;6249366;22;20222;-65
2022/05/13 14:54:52;;;;;;;3.85;1.00;;;;;;;;;;6275952;22;20214;-64
2022/05/13 14:57:19;;;;;;;2.10;0.77;;;;;;;;;;6275868;22;20226;-65
2022/05/13 14:59:52;;;;;;;4.32;1.27;;;;;;;;;;6275740;22;20170;-65
2022/05/13 15:02:50;;;;;;;1.92;0.80;;;;;;;;;;6276052;22;20123;-65
2022/05/13 15:05:34;;;;;;;1.88;0.80;;;;;;;;;;6152752;23;20152;-65
2022/05/13 15:08:01;;;;;;;2.83;0.82;;;;;;;;;;6152757;23;20153;-64
2022/05/13 15:10:29;;;;;;;1.70;0.68;;;;;;;;;;6152909;23;20230;-65
2022/05/13 15:12:59;;;;;;;3.13;0.98;;;;;;;;;;6152949;23;20173;-64
2022/05/13 15:15:26;;;;;;;7.50;1.20;;;;;;;;;;6152631;23;20156;-64
2022/05/13 15:17:56;;;;;;;3.35;0.75;;;;;;;;;;6152618;23;20232;-64
2022/05/13 15:20:24;;;;;;;4.20;0.80;;;;;;;;;;6152598;23;20224;-64
2022/05/13 15:22:50;;;;;;;2.70;0.95;;;;;;;;;;6152811;23;20146;-64
2022/05/13 15:25:16;;;;;;;1.55;0.90;;;;;;;;;;6152866;23;20200;-64
2022/05/13 15:27:43;;;;;;;2.75;0.93;;;;;;;;;;6152755;23;20157;-64
2022/05/13 15:30:09;;;;;;;3.08;1.20;;;;;;;;;;6152459;23;20150;-64
2022/05/13 15:32:35;;;;;;;2.42;1.00;;;;;;;;;;6152394;23;20528;-64
2022/05/13 15:35:01;;;;;;;2.83;1.00;;;;;;;;;;6110447;23;1009123;-64
2022/05/13 15:37:28;;;;;;;2.60;1.23;;;;;;;;;;6153923;23;20378;-65